Terminal Aerodrome Forecast
Issued by NWS

Home | Current Version | Previous Version | Text Only | Print | Product List | Glossary On
Versions: 1 2 3 4 5 6 7 8 9 10 11 12 13 14
000
FTUS46 KLOX 051125
TAFPRB
TAF
KPRB 051125Z 0512/0612 VRB03KT P6SM BKN200
     FM052300 21012KT P6SM SCT200
     FM060100 23014G20KT P6SM SCT200
     FM060500 29007KT P6SM SKC
     FM060900 VRB03KT P6SM SKC=

USA.gov is the U.S. government's official web portal to all federal, state and local government web resources and services.